createdAt,value
2018-04-12T00:02:24.200Z,15.45
2018-04-12T00:04:50.660Z,15.33
2018-04-12T00:07:17.066Z,15.20
2018-04-12T00:09:43.530Z,15.18
2018-04-12T00:12:09.985Z,15.12
2018-04-12T00:14:36.591Z,15.09
2018-04-12T00:17:03.092Z,15.00
2018-04-12T00:19:29.620Z,14.93
2018-04-12T00:21:56.213Z,14.86
2018-04-12T00:24:22.841Z,14.90
2018-04-12T00:26:49.388Z,14.90
2018-04-12T00:29:15.882Z,14.85
2018-04-12T00:31:42.407Z,14.80
2018-04-12T00:34:08.994Z,14.79
2018-04-12T00:36:35.560Z,14.75
2018-04-12T00:39:02.097Z,14.76
2018-04-12T00:41:28.662Z,14.87
2018-04-12T00:43:55.181Z,14.90
2018-04-12T00:46:21.617Z,14.89
2018-04-12T00:48:48.140Z,14.87
2018-04-12T00:51:14.584Z,14.84
2018-04-12T00:53:53.320Z,14.78
2018-04-12T00:56:19.831Z,14.74
2018-04-12T00:58:46.371Z,14.70
2018-04-12T01:01:12.787Z,14.65
2018-04-12T01:03:39.208Z,14.70
2018-04-12T01:06:05.679Z,14.64
2018-04-12T01:08:32.245Z,14.59
2018-04-12T01:10:58.857Z,14.53
2018-04-12T01:13:25.449Z,14.44
2018-04-12T01:15:51.940Z,14.47
2018-04-12T01:18:18.464Z,14.44
2018-04-12T01:20:44.968Z,14.42
2018-04-12T01:23:11.385Z,14.34
2018-04-12T01:25:37.770Z,14.36
2018-04-12T01:28:04.262Z,14.27
2018-04-12T01:30:30.847Z,14.30
2018-04-12T01:33:09.522Z,14.35
2018-04-12T01:35:35.919Z,14.44
2018-04-12T01:38:02.438Z,14.33
2018-04-12T01:40:28.946Z,14.28
2018-04-12T01:42:55.484Z,14.26
2018-04-12T01:45:21.951Z,14.19
2018-04-12T01:47:48.503Z,14.15
2018-04-12T01:50:15.037Z,14.22
2018-04-12T01:52:41.625Z,14.23
2018-04-12T01:55:08.153Z,14.26
2018-04-12T01:57:34.686Z,14.25
2018-04-12T02:00:01.072Z,14.15
2018-04-12T02:02:27.523Z,14.02
2018-04-12T02:04:54.096Z,14.04
2018-04-12T02:07:20.571Z,13.98
2018-04-12T02:09:47.048Z,14.00
2018-04-12T02:12:13.644Z,13.92
2018-04-12T02:14:40.156Z,13.89
2018-04-12T02:17:06.536Z,14.47
2018-04-12T02:19:33.004Z,14.79
2018-04-12T02:21:59.536Z,14.68
2018-04-12T02:24:26.028Z,14.60
2018-04-12T02:26:52.572Z,14.40
2018-04-12T02:29:19.087Z,14.31
2018-04-12T02:31:45.519Z,14.11
2018-04-12T02:34:12.009Z,14.10
2018-04-12T02:36:38.588Z,14.08
2018-04-12T02:39:05.191Z,13.92
2018-04-12T02:41:31.795Z,13.85
2018-04-12T02:43:58.296Z,13.79
2018-04-12T02:46:24.845Z,13.84
2018-04-12T02:48:51.325Z,13.86
2018-04-12T02:51:17.804Z,13.86
2018-04-12T02:53:44.206Z,13.84
2018-04-12T02:56:10.769Z,13.86
2018-04-12T02:58:37.429Z,13.79
2018-04-12T03:01:04.021Z,13.75
2018-04-12T03:03:30.575Z,13.69
2018-04-12T03:05:57.101Z,13.65
2018-04-12T03:08:23.493Z,13.71
2018-04-12T03:10:56.907Z,13.74
2018-04-12T03:13:23.331Z,13.67
2018-04-12T03:15:49.823Z,13.50
2018-04-12T03:18:16.250Z,13.46
2018-04-12T03:20:42.806Z,13.45
2018-04-12T03:23:09.402Z,13.46
2018-04-12T03:25:35.872Z,13.46
2018-04-12T03:28:02.488Z,13.38
2018-04-12T03:30:28.926Z,13.35
2018-04-12T03:32:55.340Z,13.29
2018-04-12T03:35:21.807Z,13.33
2018-04-12T03:37:48.281Z,13.30
2018-04-12T03:40:14.852Z,13.33
2018-04-12T03:42:41.270Z,13.26
2018-04-12T03:45:07.895Z,13.29
2018-04-12T03:47:34.409Z,13.30
2018-04-12T03:50:00.883Z,13.24
2018-04-12T03:52:34.263Z,13.27
2018-04-12T03:55:00.715Z,13.29
2018-04-12T03:57:27.215Z,13.33
2018-04-12T03:59:53.708Z,13.33
2018-04-12T04:02:20.285Z,13.27
2018-04-12T04:04:46.756Z,13.27
2018-04-12T04:07:13.249Z,13.35
2018-04-12T04:09:39.667Z,13.38
2018-04-12T04:12:06.262Z,13.40
2018-04-12T04:14:40.880Z,13.45
2018-04-12T04:17:19.483Z,13.38
2018-04-12T04:19:57.839Z,13.32
2018-04-12T04:22:24.316Z,13.34
2018-04-12T04:24:50.735Z,13.26
2018-04-12T04:27:17.104Z,13.35
2018-04-12T04:29:43.554Z,13.42
2018-04-12T04:32:10.005Z,13.42
2018-04-12T04:34:43.476Z,13.42
2018-04-12T04:37:10.011Z,13.47
2018-04-12T04:39:36.417Z,13.49
2018-04-12T04:42:02.795Z,13.47
2018-04-12T04:44:29.294Z,13.51
2018-04-12T04:46:55.745Z,13.61
2018-04-12T04:49:22.195Z,13.69
2018-04-12T04:51:48.794Z,13.76
2018-04-12T04:54:15.575Z,13.88
2018-04-12T04:56:42.076Z,13.98
2018-04-12T04:59:08.518Z,14.07
2018-04-12T05:01:35.123Z,14.08
2018-04-12T05:04:01.612Z,14.23
2018-04-12T05:06:28.110Z,14.57
2018-04-12T05:08:54.712Z,15.00
2018-04-12T05:11:21.306Z,15.11
2018-04-12T05:13:47.873Z,15.13
2018-04-12T05:16:14.435Z,15.19
2018-04-12T05:18:40.926Z,15.25
2018-04-12T05:21:07.377Z,15.23
2018-04-12T05:23:33.942Z,15.13
2018-04-12T05:26:00.546Z,15.08
2018-04-12T05:28:27.132Z,15.13
2018-04-12T05:30:53.648Z,15.22
2018-04-12T05:33:20.307Z,15.20
2018-04-12T05:35:46.748Z,15.13
2018-04-12T05:38:13.261Z,15.33
2018-04-12T05:40:39.828Z,15.37
2018-04-12T05:43:06.265Z,15.58
2018-04-12T05:45:32.780Z,15.68
2018-04-12T05:47:59.180Z,15.79
2018-04-12T05:50:25.660Z,15.97
2018-04-12T05:52:52.167Z,16.03
2018-04-12T05:55:18.811Z,16.08
2018-04-12T05:57:45.244Z,16.20
2018-04-12T06:00:11.747Z,16.24
2018-04-12T06:02:38.309Z,16.25
2018-04-12T06:05:04.757Z,16.27
2018-04-12T06:07:31.502Z,16.28
2018-04-12T06:09:57.937Z,16.50
2018-04-12T06:12:24.397Z,17.00
2018-04-12T06:14:50.995Z,17.04
2018-04-12T06:17:17.478Z,17.10
2018-04-12T06:19:44.066Z,17.12
2018-04-12T06:22:10.694Z,17.09
2018-04-12T06:24:37.136Z,17.15
2018-04-12T06:27:03.668Z,17.24
2018-04-12T06:29:30.152Z,17.22
2018-04-12T06:31:56.659Z,17.33
2018-04-12T06:34:23.198Z,17.40
2018-04-12T06:36:49.636Z,17.37
2018-04-12T06:39:16.149Z,17.35
2018-04-12T06:41:43.108Z,17.43
2018-04-12T06:44:09.668Z,17.32
2018-04-12T06:46:36.189Z,17.36
2018-04-12T06:49:02.776Z,17.29
2018-04-12T06:51:29.236Z,17.13
2018-04-12T06:53:55.656Z,17.26
2018-04-12T06:56:22.136Z,17.36
2018-04-12T06:58:48.648Z,17.42
2018-04-12T07:01:15.113Z,17.51
2018-04-12T07:03:48.495Z,17.76
2018-04-12T07:06:14.985Z,17.62
2018-04-12T07:08:41.627Z,18.17
2018-04-12T07:11:08.033Z,18.20
2018-04-12T07:13:34.525Z,18.18
2018-04-12T07:16:01.129Z,18.15
2018-04-12T07:18:27.548Z,18.29
2018-04-12T07:20:54.116Z,18.35
2018-04-12T07:23:20.745Z,18.39
2018-04-12T07:25:47.197Z,18.39
2018-04-12T07:28:13.703Z,18.51
2018-04-12T07:30:40.106Z,18.49
2018-04-12T07:33:06.471Z,18.49
2018-04-12T07:35:32.956Z,18.49
2018-04-12T07:37:59.604Z,18.63
2018-04-12T07:40:26.323Z,18.44
2018-04-12T07:42:52.833Z,18.44
2018-04-12T07:45:19.329Z,18.61
2018-04-12T07:47:45.935Z,18.63
2018-04-12T07:50:12.498Z,18.53
2018-04-12T07:52:39.008Z,18.61
2018-04-12T07:55:05.472Z,18.59
2018-04-12T07:57:32.032Z,18.81
2018-04-12T07:59:58.529Z,18.80
2018-04-12T08:02:25.058Z,18.77
2018-04-12T08:04:51.492Z,18.85
2018-04-12T08:07:18.005Z,18.76
2018-04-12T08:12:17.592Z,18.85
2018-04-12T08:14:44.129Z,18.89
2018-04-12T08:17:10.651Z,19.04
2018-04-12T08:19:37.137Z,19.23
2018-04-12T08:22:03.710Z,19.29
2018-04-12T08:24:30.288Z,19.33
2018-04-12T08:26:56.752Z,19.42
2018-04-12T08:29:23.169Z,19.63
2018-04-12T08:31:49.731Z,19.75
2018-04-12T08:34:16.196Z,19.76
2018-04-12T08:36:42.747Z,19.78
2018-04-12T08:39:09.453Z,19.78
2018-04-12T08:41:35.920Z,19.92
2018-04-12T08:44:02.355Z,19.98
2018-04-12T08:46:28.935Z,19.87
2018-04-12T08:48:55.433Z,19.97
2018-04-12T08:51:21.926Z,20.07
2018-04-12T08:53:48.546Z,20.09
2018-04-12T08:56:15.025Z,20.08
2018-04-12T08:58:41.588Z,19.93
2018-04-12T09:01:07.991Z,19.89
2018-04-12T09:03:34.728Z,20.00
2018-04-12T09:06:01.401Z,20.10
2018-04-12T09:08:28.346Z,20.30
2018-04-12T09:10:54.771Z,20.34
2018-04-12T09:13:21.587Z,20.49
2018-04-12T09:15:48.126Z,20.56
2018-04-12T09:18:14.673Z,20.62
2018-04-12T09:20:41.195Z,20.69
2018-04-12T09:23:07.787Z,20.70
2018-04-12T09:25:34.376Z,20.87
2018-04-12T09:28:00.858Z,20.94
2018-04-12T09:30:27.391Z,20.95
2018-04-12T09:32:53.933Z,20.96
2018-04-12T09:35:20.492Z,21.03
2018-04-12T09:37:46.939Z,21.08
2018-04-12T09:40:13.432Z,21.16
2018-04-12T09:42:40.110Z,21.14
2018-04-12T09:45:06.699Z,21.13
2018-04-12T09:47:33.326Z,21.25
2018-04-12T09:49:59.925Z,21.38
2018-04-12T09:52:26.559Z,21.44
2018-04-12T09:54:53.049Z,21.49
2018-04-12T09:57:19.620Z,21.63
2018-04-12T09:59:46.072Z,21.60
2018-04-12T10:02:12.584Z,21.60
2018-04-12T10:04:45.117Z,21.78
2018-04-12T10:07:22.580Z,21.84
2018-04-12T10:09:49.196Z,21.88
2018-04-12T10:12:15.791Z,21.89
2018-04-12T10:14:42.349Z,21.90
2018-04-12T10:17:08.812Z,21.98
2018-04-12T10:19:35.272Z,22.11
2018-04-12T10:22:01.812Z,22.02
2018-04-12T10:24:28.315Z,22.11
2018-04-12T10:26:54.875Z,22.13
2018-04-12T10:29:21.386Z,22.22
2018-04-12T10:31:47.892Z,22.33
2018-04-12T10:34:14.359Z,22.28
2018-04-12T10:36:40.898Z,22.27
2018-04-12T10:39:07.395Z,22.35
2018-04-12T10:41:33.932Z,22.28
2018-04-12T10:44:00.429Z,22.33
2018-04-12T10:46:26.917Z,22.35
2018-04-12T10:48:53.500Z,22.46
2018-04-12T10:51:20.095Z,22.50
2018-04-12T10:53:46.597Z,22.48
2018-04-12T10:56:13.135Z,22.58
2018-04-12T10:58:39.563Z,22.62
2018-04-12T11:01:06.011Z,22.65
2018-04-12T11:03:32.657Z,22.65
2018-04-12T11:05:59.187Z,22.66
2018-04-12T11:08:25.763Z,22.75
2018-04-12T11:10:52.216Z,22.79
2018-04-12T11:13:18.680Z,22.79
2018-04-12T11:15:45.241Z,22.70
2018-04-12T11:18:11.801Z,22.68
2018-04-12T11:20:45.350Z,22.84
2018-04-12T11:23:11.903Z,22.86
2018-04-12T11:25:38.475Z,22.79
2018-04-12T11:28:04.981Z,22.77
2018-04-12T11:30:31.484Z,22.96
2018-04-12T11:32:57.931Z,23.00
2018-04-12T11:35:24.512Z,23.04
2018-04-12T11:37:51.035Z,23.06
2018-04-12T11:40:17.511Z,23.06
2018-04-12T11:42:44.121Z,23.11
2018-04-12T11:45:10.586Z,23.13
2018-04-12T11:47:37.167Z,23.27
2018-04-12T11:50:03.805Z,23.33
2018-04-12T11:52:30.232Z,23.28
2018-04-12T11:54:56.634Z,23.30
2018-04-12T11:57:23.571Z,23.25
2018-04-12T11:59:50.213Z,23.30
2018-04-12T12:02:16.985Z,23.38
2018-04-12T12:04:43.548Z,23.44
2018-04-12T12:07:10.076Z,23.55
2018-04-12T12:09:36.528Z,23.68
2018-04-12T12:12:02.972Z,23.68
2018-04-12T12:14:29.468Z,23.71
2018-04-12T12:16:55.947Z,23.67
2018-04-12T12:19:22.444Z,23.71
2018-04-12T12:21:49.045Z,23.72
2018-04-12T12:24:15.642Z,23.69
2018-04-12T12:26:42.254Z,23.75
2018-04-12T12:29:08.789Z,23.82
2018-04-12T12:31:35.257Z,23.84
2018-04-12T12:34:01.765Z,23.86
2018-04-12T12:36:28.311Z,23.91
2018-04-12T12:38:54.769Z,24.00
2018-04-12T12:41:21.385Z,24.01
2018-04-12T12:43:47.918Z,24.04
2018-04-12T12:46:14.667Z,24.11
2018-04-12T12:52:01.013Z,23.98
2018-04-12T12:54:27.521Z,24.09
2018-04-12T12:56:53.916Z,24.13
2018-04-12T12:59:20.498Z,24.13
2018-04-12T13:01:47.025Z,24.11
2018-04-12T13:04:13.617Z,24.09
2018-04-12T13:06:40.261Z,24.05
2018-04-12T13:09:06.777Z,24.13
2018-04-12T13:11:33.248Z,24.10
2018-04-12T13:13:59.851Z,24.09
2018-04-12T13:16:26.353Z,24.17
2018-04-12T13:18:52.871Z,24.16
2018-04-12T13:21:19.309Z,24.11
2018-04-12T13:23:45.777Z,24.23
2018-04-12T13:26:12.351Z,24.26
2018-04-12T13:28:38.868Z,24.36
2018-04-12T13:31:05.399Z,24.39
2018-04-12T13:33:31.866Z,24.48
2018-04-12T13:35:58.401Z,24.49
2018-04-12T13:38:24.821Z,24.56
2018-04-12T13:40:51.383Z,24.60
2018-04-12T13:43:17.853Z,24.54
2018-04-12T13:45:44.305Z,24.56
2018-04-12T13:48:10.936Z,24.65
2018-04-12T13:50:37.461Z,24.51
2018-04-12T13:53:03.954Z,24.50
2018-04-12T13:55:30.476Z,24.49
2018-04-12T13:57:57.003Z,24.58
2018-04-12T14:00:23.458Z,24.68
2018-04-12T14:12:07.988Z,24.79
2018-04-12T14:14:34.524Z,24.83
2018-04-12T14:17:01.073Z,24.85
2018-04-12T14:19:27.536Z,24.85
2018-04-12T14:21:53.987Z,24.85
2018-04-12T14:24:20.494Z,24.91
2018-04-12T14:26:47.136Z,24.91
2018-04-12T14:29:13.670Z,24.91
2018-04-12T14:31:40.188Z,24.91
2018-04-12T14:34:06.581Z,24.91
2018-04-12T14:36:33.156Z,24.90
2018-04-12T14:38:59.631Z,24.85
2018-04-12T14:41:26.083Z,24.83
2018-04-12T14:43:52.540Z,24.91
2018-04-12T14:46:19.160Z,24.97
2018-04-12T14:48:45.698Z,24.91
2018-04-12T14:51:12.185Z,24.84
2018-04-12T14:53:38.693Z,24.90
2018-04-12T14:56:05.092Z,24.91
2018-04-12T14:58:31.712Z,24.91
2018-04-12T15:00:58.174Z,24.94
2018-04-12T15:03:24.683Z,25.02
2018-04-12T15:05:51.207Z,25.07
2018-04-12T15:08:17.728Z,25.12
2018-04-12T15:10:44.277Z,25.05
2018-04-12T15:13:10.719Z,25.09
2018-04-12T15:15:37.224Z,25.13
2018-04-12T15:18:03.576Z,25.05
2018-04-12T15:20:29.988Z,25.05
2018-04-12T15:22:56.371Z,25.05
2018-04-12T15:25:22.893Z,24.97
2018-04-12T15:27:49.357Z,25.01
2018-04-12T15:30:15.939Z,25.03
2018-04-12T15:32:42.352Z,25.00
2018-04-12T15:35:08.815Z,24.99
2018-04-12T15:37:35.302Z,25.01
2018-04-12T15:40:01.853Z,25.00
2018-04-12T15:42:28.561Z,24.92
2018-04-12T15:44:54.953Z,25.01
2018-04-12T15:47:21.449Z,25.00
2018-04-12T15:52:44.572Z,24.93
2018-04-12T15:55:11.020Z,24.86
2018-04-12T15:57:37.704Z,24.84
2018-04-12T16:00:04.349Z,24.79
2018-04-12T16:02:30.868Z,24.68
2018-04-12T16:04:57.273Z,24.61
2018-04-12T16:07:23.676Z,24.54
2018-04-12T16:09:50.334Z,24.42
2018-04-12T16:12:16.687Z,24.30
2018-04-12T16:14:43.338Z,24.26
2018-04-12T16:17:09.709Z,24.24
2018-04-12T16:19:36.165Z,24.17
2018-04-12T16:22:02.708Z,24.14
2018-04-12T16:24:29.276Z,24.10
2018-04-12T16:26:55.961Z,24.09
2018-04-12T16:29:22.324Z,24.02
2018-04-12T16:31:48.781Z,24.04
2018-04-12T16:34:15.114Z,24.05
2018-04-12T16:36:41.641Z,23.93
2018-04-12T16:39:08.051Z,23.92
2018-04-12T16:41:34.540Z,23.85
2018-04-12T16:44:00.954Z,23.85
2018-04-12T16:46:27.416Z,23.83
2018-04-12T16:48:53.859Z,23.73
2018-04-12T16:51:20.368Z,23.71
2018-04-12T16:53:46.845Z,23.65
2018-04-12T16:56:13.322Z,23.61
2018-04-12T16:58:39.864Z,23.58
2018-04-12T17:01:06.270Z,23.52
2018-04-12T17:03:32.700Z,23.46
2018-04-12T17:05:59.107Z,23.47
2018-04-12T17:08:25.493Z,23.45
2018-04-12T17:10:51.968Z,23.34
2018-04-12T17:13:18.476Z,23.30
2018-04-12T17:15:44.966Z,23.24
2018-04-12T17:18:11.364Z,23.27
2018-04-12T17:20:37.788Z,23.19
2018-04-12T17:23:04.165Z,23.10
2018-04-12T17:25:30.525Z,23.08
2018-04-12T17:27:56.840Z,23.01
2018-04-12T17:30:23.368Z,22.91
2018-04-12T17:32:49.759Z,22.87
2018-04-12T17:35:16.196Z,22.82
2018-04-12T17:37:42.745Z,22.69
2018-04-12T17:40:09.288Z,22.69
2018-04-12T17:42:35.992Z,22.58
2018-04-12T17:45:02.836Z,22.49
2018-04-12T17:47:29.272Z,22.46
2018-04-12T17:49:55.710Z,22.46
2018-04-12T17:52:22.208Z,22.26
2018-04-12T17:54:48.647Z,22.16
2018-04-12T17:57:15.053Z,22.12
2018-04-12T17:59:41.592Z,22.21
2018-04-12T18:02:07.989Z,22.03
2018-04-12T18:04:34.355Z,21.92
2018-04-12T18:07:00.687Z,21.87
2018-04-12T18:09:27.090Z,21.87
2018-04-12T18:11:53.538Z,21.89
2018-04-12T18:14:20.009Z,21.68
2018-04-12T18:16:46.531Z,21.69
2018-04-12T18:19:13.039Z,21.63
2018-04-12T18:21:39.822Z,21.64
2018-04-12T18:24:06.536Z,21.63
2018-04-12T18:26:32.924Z,21.55
2018-04-12T18:28:59.373Z,21.57
2018-04-12T18:31:25.912Z,21.47
2018-04-12T18:33:52.448Z,21.50
2018-04-12T18:36:18.908Z,21.39
2018-04-12T18:38:45.307Z,21.39
2018-04-12T18:41:11.742Z,21.39
2018-04-12T18:43:38.081Z,21.35
2018-04-12T18:46:04.542Z,21.37
2018-04-12T18:48:31.073Z,21.25
2018-04-12T18:50:57.621Z,21.19
2018-04-12T18:53:24.077Z,21.14
2018-04-12T18:55:50.690Z,21.16
2018-04-12T18:58:17.164Z,21.21
2018-04-12T19:00:43.632Z,21.40
2018-04-12T19:03:10.179Z,21.31
2018-04-12T19:05:36.762Z,21.14
2018-04-12T19:08:03.300Z,21.16
2018-04-12T19:10:29.695Z,21.22
2018-04-12T19:12:56.107Z,21.16
2018-04-12T19:15:22.532Z,21.16
2018-04-12T19:17:49.014Z,21.00
2018-04-12T19:20:15.441Z,21.04
2018-04-12T19:22:41.976Z,21.02
2018-04-12T19:25:08.291Z,21.00
2018-04-12T19:27:34.662Z,21.01
2018-04-12T19:30:01.133Z,21.00
2018-04-12T19:32:27.574Z,21.03
2018-04-12T19:34:54.167Z,20.84
2018-04-12T19:37:20.820Z,20.78
2018-04-12T19:39:47.392Z,20.79
2018-04-12T19:42:13.820Z,20.95
2018-04-12T19:44:40.212Z,20.89
2018-04-12T19:47:06.556Z,20.89
2018-04-12T19:49:32.869Z,20.85
2018-04-12T19:51:59.275Z,20.81
2018-04-12T19:54:25.708Z,20.78
2018-04-12T19:56:52.267Z,20.74
2018-04-12T19:59:18.652Z,20.78
2018-04-12T20:01:45.187Z,20.69
2018-04-12T20:04:11.524Z,20.66
2018-04-12T20:06:38.008Z,20.60
2018-04-12T20:09:05.380Z,20.52
2018-04-12T20:11:31.866Z,20.59
2018-04-12T20:13:58.301Z,20.59
2018-04-12T20:16:24.757Z,20.50
2018-04-12T20:18:51.236Z,20.55
2018-04-12T20:21:17.600Z,20.48
2018-04-12T20:23:43.976Z,20.44
2018-04-12T20:26:10.368Z,20.50
2018-04-12T20:28:36.884Z,20.49
2018-04-12T20:31:03.289Z,20.46
2018-04-12T20:33:29.750Z,20.50
2018-04-12T20:35:56.232Z,20.48
2018-04-12T20:38:22.750Z,20.43
2018-04-12T20:40:49.233Z,20.47
2018-04-12T20:43:15.679Z,20.55
2018-04-12T20:45:42.185Z,20.41
2018-04-12T20:48:08.702Z,20.37
2018-04-12T20:50:35.227Z,20.38
2018-04-12T20:53:01.760Z,20.38
2018-04-12T20:55:28.335Z,20.46
2018-04-12T20:57:54.869Z,20.39
2018-04-12T21:00:21.442Z,20.38
2018-04-12T21:02:47.979Z,20.39
2018-04-12T21:05:14.362Z,20.37
2018-04-12T21:07:40.732Z,20.31
2018-04-12T21:10:07.140Z,20.35
2018-04-12T21:12:33.530Z,20.34
2018-04-12T21:15:00.009Z,20.31
2018-04-12T21:17:26.396Z,20.23
2018-04-12T21:19:52.840Z,20.22
2018-04-12T21:22:19.268Z,20.24
2018-04-12T21:24:45.600Z,20.16
2018-04-12T21:27:12.012Z,20.22
2018-04-12T21:29:38.436Z,20.34
2018-04-12T21:32:04.872Z,20.30
2018-04-12T21:34:31.341Z,20.17
2018-04-12T21:36:57.732Z,20.16
2018-04-12T21:39:24.184Z,20.15
2018-04-12T21:41:50.701Z,20.22
2018-04-12T21:44:17.145Z,20.26
2018-04-12T21:46:43.592Z,20.30
2018-04-12T21:49:09.888Z,20.18
2018-04-12T21:51:36.326Z,20.10
2018-04-12T21:54:02.755Z,20.07
2018-04-12T21:56:29.119Z,20.02
2018-04-12T21:58:55.568Z,20.12
2018-04-12T22:01:21.982Z,20.20
2018-04-12T22:03:48.548Z,20.18
2018-04-12T22:06:15.060Z,20.21
2018-04-12T22:08:41.636Z,20.07
2018-04-12T22:11:08.229Z,20.04
2018-04-12T22:13:34.740Z,19.95
2018-04-12T22:16:01.415Z,19.80
2018-04-12T22:18:27.981Z,19.63
2018-04-12T22:20:54.725Z,19.57
2018-04-12T22:23:21.270Z,19.50
2018-04-12T22:25:47.898Z,19.40
2018-04-12T22:28:14.449Z,19.32
2018-04-12T22:30:41.020Z,19.27
2018-04-12T22:33:07.631Z,19.17
2018-04-12T22:35:34.313Z,19.12
2018-04-12T22:38:00.879Z,18.98
2018-04-12T22:40:27.435Z,18.93
2018-04-12T22:42:54.101Z,18.75
2018-04-12T22:45:20.704Z,18.74
2018-04-12T22:47:47.255Z,18.63
2018-04-12T22:50:13.861Z,18.57
2018-04-12T22:52:40.406Z,18.49
2018-04-12T22:55:07.112Z,18.46
2018-04-12T22:57:33.660Z,18.42
2018-04-12T23:00:00.310Z,18.33
2018-04-12T23:02:26.926Z,18.32
2018-04-12T23:04:53.580Z,18.35
2018-04-12T23:07:20.270Z,18.33
2018-04-12T23:09:46.916Z,18.28
2018-04-12T23:12:13.559Z,18.18
2018-04-12T23:14:40.254Z,18.11
2018-04-12T23:17:06.912Z,18.09
2018-04-12T23:19:33.598Z,17.95
2018-04-12T23:22:00.197Z,17.85
2018-04-12T23:24:26.799Z,17.82
2018-04-12T23:26:53.532Z,17.71
2018-04-12T23:29:20.262Z,17.75
2018-04-12T23:31:46.817Z,17.70
2018-04-12T23:34:13.560Z,17.66
2018-04-12T23:36:40.188Z,17.60
2018-04-12T23:39:06.774Z,17.59
2018-04-12T23:41:33.457Z,17.54
2018-04-12T23:44:00.145Z,17.50
2018-04-12T23:46:26.880Z,17.50
2018-04-12T23:48:53.452Z,17.47
2018-04-12T23:51:20.092Z,17.44
2018-04-12T23:53:46.657Z,17.48
2018-04-12T23:56:13.303Z,17.50
2018-04-12T23:58:39.995Z,17.54
